sensor_id;sensor_type;location;lat;lon;timestamp;pressure;altitude;pressure_sealevel;temperature;humidity
77537;BME280;67783;51.656;16.106;2023-02-13T00:02:06;103815.95;;;9.30;66.89
77537;BME280;67783;51.656;16.106;2023-02-13T00:05:11;103813.35;;;9.25;68.40
77537;BME280;67783;51.656;16.106;2023-02-13T00:08:13;103815.06;;;9.30;66.91
77537;BME280;67783;51.656;16.106;2023-02-13T00:11:15;103810.57;;;9.32;67.38
77537;BME280;67783;51.656;16.106;2023-02-13T00:14:17;103815.88;;;9.33;66.89
77537;BME280;67783;51.656;16.106;2023-02-13T00:17:19;103811.41;;;9.34;67.19
77537;BME280;67783;51.656;16.106;2023-02-13T00:20:23;103810.45;;;9.38;66.90
77537;BME280;67783;51.656;16.106;2023-02-13T00:23:25;103807.77;;;9.38;67.10
77537;BME280;67783;51.656;16.106;2023-02-13T00:26:30;103801.52;;;9.37;68.05
77537;BME280;67783;51.656;16.106;2023-02-13T00:29:31;103807.77;;;9.38;67.11
77537;BME280;67783;51.656;16.106;2023-02-13T00:32:33;103812.24;;;9.37;67.44
77537;BME280;67783;51.656;16.106;2023-02-13T00:35:35;103805.99;;;9.37;67.13
77537;BME280;67783;51.656;16.106;2023-02-13T00:38:38;103800.71;;;9.34;67.45
77537;BME280;67783;51.656;16.106;2023-02-13T00:41:50;103802.49;;;9.35;68.45
77537;BME280;67783;51.656;16.106;2023-02-13T00:44:52;103800.71;;;9.34;67.30
77537;BME280;67783;51.656;16.106;2023-02-13T00:47:54;103802.58;;;9.28;68.00
77537;BME280;67783;51.656;16.106;2023-02-13T00:50:56;103796.33;;;9.30;67.43
77537;BME280;67783;51.656;16.106;2023-02-13T00:53:58;103793.66;;;9.28;67.73
77537;BME280;67783;51.656;16.106;2023-02-13T00:57:11;103793.73;;;9.23;69.04
77537;BME280;67783;51.656;16.106;2023-02-13T01:00:14;103794.62;;;9.25;67.61
77537;BME280;67783;51.656;16.106;2023-02-13T01:03:17;103797.38;;;9.21;68.28
77537;BME280;67783;51.656;16.106;2023-02-13T01:06:19;103797.35;;;9.22;67.70
77537;BME280;67783;51.656;16.106;2023-02-13T01:09:20;103799.16;;;9.20;67.98
77537;BME280;67783;51.656;16.106;2023-02-13T01:12:32;103796.55;;;9.17;69.48
77537;BME280;67783;51.656;16.106;2023-02-13T01:15:34;103792.09;;;9.16;67.97
77537;BME280;67783;51.656;16.106;2023-02-13T01:18:37;103792.09;;;9.16;68.74
77537;BME280;67783;51.656;16.106;2023-02-13T01:21:39;103783.16;;;9.17;68.10
77537;BME280;67783;51.656;16.106;2023-02-13T01:24:41;103788.52;;;9.17;68.61
77537;BME280;67783;51.656;16.106;2023-02-13T01:27:52;103781.45;;;9.13;70.43
77537;BME280;67783;51.656;16.106;2023-02-13T01:30:55;103782.34;;;9.14;68.45
77537;BME280;67783;51.656;16.106;2023-02-13T01:33:58;103778.78;;;9.12;69.11
77537;BME280;67783;51.656;16.106;2023-02-13T01:37:00;103771.70;;;9.09;68.66
77537;BME280;67783;51.656;16.106;2023-02-13T01:40:03;103777.08;;;9.08;69.17
77537;BME280;67783;51.656;16.106;2023-02-13T01:43:13;103771.77;;;9.06;71.18
77537;BME280;67783;51.656;16.106;2023-02-13T01:46:21;103766.36;;;9.09;69.05
77537;BME280;67783;51.656;16.106;2023-02-13T01:49:24;103763.69;;;9.09;69.51
77537;BME280;67783;51.656;16.106;2023-02-13T01:52:27;103765.49;;;9.07;69.12
77537;BME280;67783;51.656;16.106;2023-02-13T01:55:31;103763.70;;;9.08;69.48
77537;BME280;67783;51.656;16.106;2023-02-13T01:58:38;103760.18;;;9.06;71.76
77537;BME280;67783;51.656;16.106;2023-02-13T02:01:43;103759.22;;;9.10;69.37
77537;BME280;67783;51.656;16.106;2023-02-13T02:04:47;103761.84;;;9.11;69.82
77537;BME280;67783;51.656;16.106;2023-02-13T02:07:50;103756.47;;;9.13;69.24
77537;BME280;67783;51.656;16.106;2023-02-13T02:10:52;103756.49;;;9.11;69.63
77537;BME280;67783;51.656;16.106;2023-02-13T02:13:57;103754.75;;;9.10;71.14
77537;BME280;67783;51.656;16.106;2023-02-13T02:16:59;103751.21;;;9.08;69.50
77537;BME280;67783;51.656;16.106;2023-02-13T02:39:57;103751.20;;;9.10;69.76
77537;BME280;67783;51.656;16.106;2023-02-13T02:43:09;103742.27;;;9.09;70.04
77537;BME280;67783;51.656;16.106;2023-02-13T02:46:23;103752.08;;;9.10;70.75
77537;BME280;67783;51.656;16.106;2023-02-13T02:49:39;103702.59;;;8.85;71.21
77537;BME280;67783;51.656;16.106;2023-02-13T02:56:13;103749.35;;;9.12;70.18
77537;BME280;67783;51.656;16.106;2023-02-13T02:59:20;103745.77;;;9.13;70.84
77537;BME280;67783;51.656;16.106;2023-02-13T03:02:43;103743.10;;;9.11;72.06
77537;BME280;67783;51.656;16.106;2023-02-13T03:05:58;103730.62;;;9.12;70.24
77537;BME280;67783;51.656;16.106;2023-02-13T03:09:22;103735.06;;;9.14;70.34
77537;BME280;67783;51.656;16.106;2023-02-13T03:16:03;103729.84;;;9.07;70.84
77537;BME280;67783;51.656;16.106;2023-02-13T03:19:34;103731.66;;;9.03;72.31
77537;BME280;67783;51.656;16.106;2023-02-13T03:23:04;103727.21;;;9.04;72.09
77537;BME280;67783;51.656;16.106;2023-02-13T03:39:52;103735.28;;;9.02;72.40
77537;BME280;67783;51.656;16.106;2023-02-13T03:46:09;103730.69;;;9.07;70.78
77537;BME280;67783;51.656;16.106;2023-02-13T03:49:21;103733.36;;;9.09;72.42
77537;BME280;67783;51.656;16.106;2023-02-13T03:56:01;103735.07;;;9.13;70.60
77537;BME280;67783;51.656;16.106;2023-02-13T03:59:23;103733.27;;;9.13;70.74
77537;BME280;67783;51.656;16.106;2023-02-13T04:02:31;103729.73;;;9.11;71.60
77537;BME280;67783;51.656;16.106;2023-02-13T04:05:40;103723.41;;;9.15;70.60
77537;BME280;67783;51.656;16.106;2023-02-13T04:08:43;103721.59;;;9.17;70.84
77537;BME280;67783;51.656;16.106;2023-02-13T04:15:11;103725.23;;;9.15;70.76
77537;BME280;67783;51.656;16.106;2023-02-13T04:21:34;103722.50;;;9.16;71.35
77537;BME280;67783;51.656;16.106;2023-02-13T04:24:37;103725.17;;;9.18;70.82
77537;BME280;67783;51.656;16.106;2023-02-13T04:27:39;103706.38;;;9.19;71.23
77537;BME280;67783;51.656;16.106;2023-02-13T04:30:46;103718.86;;;9.20;72.61
77537;BME280;67783;51.656;16.106;2023-02-13T04:33:49;103723.24;;;9.24;70.93
77537;BME280;67783;51.656;16.106;2023-02-13T04:36:51;103722.34;;;9.25;71.43
77537;BME280;67783;51.656;16.106;2023-02-13T04:39:53;103716.97;;;9.27;70.96
77537;BME280;67783;51.656;16.106;2023-02-13T04:42:55;103708.05;;;9.26;71.20
77537;BME280;67783;51.656;16.106;2023-02-13T04:46:07;103716.91;;;9.28;72.67
77537;BME280;67783;51.656;16.106;2023-02-13T04:49:09;103718.69;;;9.30;71.03
77537;BME280;67783;51.656;16.106;2023-02-13T04:52:12;103715.11;;;9.31;71.64
77537;BME280;67783;51.656;16.106;2023-02-13T04:55:15;103698.96;;;9.34;71.00
77537;BME280;67783;51.656;16.106;2023-02-13T04:58:17;103710.59;;;9.33;71.24
77537;BME280;67783;51.656;16.106;2023-02-13T05:01:27;103714.21;;;9.32;72.69
77537;BME280;67783;51.656;16.106;2023-02-13T05:04:29;103715.04;;;9.34;71.16
77537;BME280;67783;51.656;16.106;2023-02-13T05:07:31;103718.58;;;9.36;71.91
77537;BME280;67783;51.656;16.106;2023-02-13T05:10:33;103714.06;;;9.38;71.17
77537;BME280;67783;51.656;16.106;2023-02-13T05:13:35;103710.50;;;9.37;71.54
77537;BME280;67783;51.656;16.106;2023-02-13T05:16:48;103704.26;;;9.37;72.92
77537;BME280;67783;51.656;16.106;2023-02-13T05:19:53;103714.93;;;9.40;71.27
77537;BME280;67783;51.656;16.106;2023-02-13T05:22:54;103714.93;;;9.40;71.71
77537;BME280;67783;51.656;16.106;2023-02-13T05:26:14;103717.63;;;9.38;73.20
77537;BME280;67783;51.656;16.106;2023-02-13T05:29:16;103722.02;;;9.41;71.40
77537;BME280;67783;51.656;16.106;2023-02-13T05:32:23;103722.02;;;9.41;71.68
77537;BME280;67783;51.656;16.106;2023-02-13T05:35:25;103718.45;;;9.42;71.32
77537;BME280;67783;51.656;16.106;2023-02-13T05:38:27;103722.91;;;9.41;71.58
77537;BME280;67783;51.656;16.106;2023-02-13T05:41:35;103724.68;;;9.42;72.52
77537;BME280;67783;51.656;16.106;2023-02-13T05:44:37;103727.34;;;9.44;71.48
77537;BME280;67783;51.656;16.106;2023-02-13T05:47:39;103725.57;;;9.43;71.97
77537;BME280;67783;51.656;16.106;2023-02-13T05:50:40;103726.41;;;9.45;71.38
77537;BME280;67783;51.656;16.106;2023-02-13T05:53:42;103729.97;;;9.45;71.67
77537;BME280;67783;51.656;16.106;2023-02-13T05:56:44;103729.09;;;9.45;71.38
77537;BME280;67783;51.656;16.106;2023-02-13T05:59:47;103729.13;;;9.43;71.60
77537;BME280;67783;51.656;16.106;2023-02-13T06:02:51;103730.84;;;9.46;72.88
77537;BME280;67783;51.656;16.106;2023-02-13T06:05:54;103726.38;;;9.46;71.45
77537;BME280;67783;51.656;16.106;2023-02-13T06:08:56;103730.84;;;9.46;71.92
77537;BME280;67783;51.656;16.106;2023-02-13T06:11:58;103737.09;;;9.46;71.45
77537;BME280;67783;51.656;16.106;2023-02-13T06:15:00;103737.98;;;9.47;71.72
77537;BME280;67783;51.656;16.106;2023-02-13T06:18:12;103740.61;;;9.48;72.95
77537;BME280;67783;51.656;16.106;2023-02-13T06:21:14;103739.69;;;9.51;71.22
77537;BME280;67783;51.656;16.106;2023-02-13T06:24:16;103753.05;;;9.52;71.97
77537;BME280;67783;51.656;16.106;2023-02-13T06:27:18;103758.36;;;9.54;71.40
77537;BME280;67783;51.656;16.106;2023-02-13T06:30:21;103763.70;;;9.55;71.62
77537;BME280;67783;51.656;16.106;2023-02-13T06:33:33;103777.98;;;9.56;72.78
77537;BME280;67783;51.656;16.106;2023-02-13T06:36:35;103778.81;;;9.58;71.50
77537;BME280;67783;51.656;16.106;2023-02-13T06:39:38;103754.15;;;9.41;71.92
77537;BME280;67783;51.656;16.106;2023-02-13T06:42:44;103778.81;;;9.58;71.54
77537;BME280;67783;51.656;16.106;2023-02-13T06:45:46;103737.52;;;9.25;71.62
77537;BME280;67783;51.656;16.106;2023-02-13T06:48:53;103789.66;;;9.52;72.50
77537;BME280;67783;51.656;16.106;2023-02-13T06:51:55;103796.77;;;9.53;71.39
77537;BME280;67783;51.656;16.106;2023-02-13T06:54:57;103796.00;;;9.48;71.71
77537;BME280;67783;51.656;16.106;2023-02-13T06:57:59;103806.79;;;9.43;71.25
77537;BME280;67783;51.656;16.106;2023-02-13T07:01:01;103816.77;;;9.34;71.17
77537;BME280;67783;51.656;16.106;2023-02-13T07:04:03;103816.91;;;9.28;71.03
77537;BME280;67783;51.656;16.106;2023-02-13T07:07:05;103812.55;;;9.20;71.03
77537;BME280;67783;51.656;16.106;2023-02-13T07:10:12;103824.27;;;9.13;71.27
77537;BME280;67783;51.656;16.106;2023-02-13T07:13:15;103811.79;;;9.12;70.99
77537;BME280;67783;51.656;16.106;2023-02-13T07:16:17;103819.86;;;9.11;71.12
77537;BME280;67783;51.656;16.106;2023-02-13T07:19:19;103818.02;;;9.14;70.92
77537;BME280;67783;51.656;16.106;2023-02-13T07:22:21;103823.38;;;9.14;70.85
77537;BME280;67783;51.656;16.106;2023-02-13T07:25:30;103823.38;;;9.14;71.48
77537;BME280;67783;51.656;16.106;2023-02-13T07:28:33;103837.57;;;9.18;70.91
77537;BME280;67783;51.656;16.106;2023-02-13T07:31:35;103816.39;;;9.04;71.08
77537;BME280;67783;51.656;16.106;2023-02-13T07:34:37;103840.13;;;9.25;70.83
77537;BME280;67783;51.656;16.106;2023-02-13T07:37:38;103838.32;;;9.28;70.90
77537;BME280;67783;51.656;16.106;2023-02-13T07:40:51;103832.97;;;9.28;71.26
77537;BME280;67783;51.656;16.106;2023-02-13T07:43:53;103832.90;;;9.31;70.70
77537;BME280;67783;51.656;16.106;2023-02-13T07:46:55;103832.83;;;9.35;70.82
77537;BME280;67783;51.656;16.106;2023-02-13T07:49:57;103836.20;;;9.45;70.56
77537;BME280;67783;51.656;16.106;2023-02-13T07:53:00;103826.30;;;9.48;70.31
77537;BME280;67783;51.656;16.106;2023-02-13T07:56:12;103835.14;;;9.53;70.48
77537;BME280;67783;51.656;16.106;2023-02-13T07:59:14;103834.16;;;9.59;70.13
77537;BME280;67783;51.656;16.106;2023-02-13T08:02:16;103812.96;;;9.47;70.00
77537;BME280;67783;51.656;16.106;2023-02-13T08:05:18;103835.79;;;9.66;69.95
77537;BME280;67783;51.656;16.106;2023-02-13T08:08:19;103825.09;;;9.66;69.76
77537;BME280;67783;51.656;16.106;2023-02-13T08:11:27;103828.63;;;9.68;69.75
77537;BME280;67783;51.656;16.106;2023-02-13T08:14:43;103825.95;;;9.68;69.66
77537;BME280;67783;51.656;16.106;2023-02-13T08:17:48;103830.38;;;9.69;69.43
77537;BME280;67783;51.656;16.106;2023-02-13T08:20:50;103828.49;;;9.74;69.47
77537;BME280;67783;51.656;16.106;2023-02-13T08:23:52;103834.72;;;9.76;68.98
77537;BME280;67783;51.656;16.106;2023-02-13T08:26:57;103839.94;;;9.82;69.19
77537;BME280;67783;51.656;16.106;2023-02-13T08:29:59;103837.24;;;9.84;69.22
77537;BME280;67783;51.656;16.106;2023-02-13T08:33:09;103836.28;;;9.86;69.05
77537;BME280;67783;51.656;16.106;2023-02-13T08:36:11;103826.35;;;9.93;69.16
77537;BME280;67783;51.656;16.106;2023-02-13T08:39:13;103805.16;;;9.81;68.95
77537;BME280;67783;51.656;16.106;2023-02-13T08:42:14;103833.31;;;10.01;68.82
77537;BME280;67783;51.656;16.106;2023-02-13T08:45:17;103832.36;;;10.04;68.38
77537;BME280;67783;51.656;16.106;2023-02-13T08:48:18;103840.30;;;10.08;68.30
77537;BME280;67783;51.656;16.106;2023-02-13T08:51:20;103836.65;;;10.12;68.18
77537;BME280;67783;51.656;16.106;2023-02-13T08:54:25;103841.09;;;10.15;66.75
77537;BME280;67783;51.656;16.106;2023-02-13T08:57:28;103839.24;;;10.18;67.95
77537;BME280;67783;51.656;16.106;2023-02-13T09:00:31;103838.41;;;10.13;67.29
77537;BME280;67783;51.656;16.106;2023-02-13T09:03:35;103852.76;;;10.11;67.73
77537;BME280;67783;51.656;16.106;2023-02-13T09:06:37;103849.33;;;10.04;67.45
77537;BME280;67783;51.656;16.106;2023-02-13T09:09:46;103852.99;;;10.00;66.73
77537;BME280;67783;51.656;16.106;2023-02-13T09:12:52;103854.76;;;10.01;67.65
77537;BME280;67783;51.656;16.106;2023-02-13T09:15:56;103863.78;;;9.97;67.42
77537;BME280;67783;51.656;16.106;2023-02-13T09:18:59;103855.69;;;9.99;67.76
77537;BME280;67783;51.656;16.106;2023-02-13T09:22:01;103868.20;;;9.98;67.71
77537;BME280;67783;51.656;16.106;2023-02-13T09:25:08;103866.47;;;9.97;67.09
77537;BME280;67783;51.656;16.106;2023-02-13T09:28:10;103859.18;;;10.02;67.72
77537;BME280;67783;51.656;16.106;2023-02-13T09:31:17;103863.71;;;10.00;67.29
77537;BME280;67783;51.656;16.106;2023-02-13T09:34:20;103861.93;;;9.99;67.52
77537;BME280;67783;51.656;16.106;2023-02-13T09:37:21;103859.34;;;9.95;67.26
77537;BME280;67783;51.656;16.106;2023-02-13T09:40:36;103866.56;;;9.91;66.21
77537;BME280;67783;51.656;16.106;2023-02-13T09:46:52;103861.29;;;9.87;67.09
77537;BME280;67783;51.656;16.106;2023-02-13T09:50:04;103864.02;;;9.85;65.85
77537;BME280;67783;51.656;16.106;2023-02-13T09:53:15;103868.42;;;9.88;66.96
77537;BME280;67783;51.656;16.106;2023-02-13T10:03:12;103867.69;;;9.80;65.28
77537;BME280;67783;51.656;16.106;2023-02-13T10:09:32;103850.74;;;9.78;66.40
77537;BME280;67783;51.656;16.106;2023-02-13T10:19:12;103857.05;;;9.75;66.36
77537;BME280;67783;51.656;16.106;2023-02-13T10:25:32;103852.45;;;9.82;66.42
77537;BME280;67783;51.656;16.106;2023-02-13T10:28:52;103847.98;;;9.82;66.37
77537;BME280;67783;51.656;16.106;2023-02-13T10:32:01;103846.25;;;9.80;66.34
77537;BME280;67783;51.656;16.106;2023-02-13T10:35:20;103844.46;;;9.80;65.78
77537;BME280;67783;51.656;16.106;2023-02-13T10:38:30;103843.51;;;9.83;66.39
77537;BME280;67783;51.656;16.106;2023-02-13T10:51:32;103831.88;;;9.84;66.08
77537;BME280;67783;51.656;16.106;2023-02-13T11:01:12;103821.14;;;9.85;65.70
77537;BME280;67783;51.656;16.106;2023-02-13T11:04:18;103820.20;;;9.86;65.56
77537;BME280;67783;51.656;16.106;2023-02-13T11:07:23;103821.14;;;9.85;63.39
77537;BME280;67783;51.656;16.106;2023-02-13T11:10:26;103813.93;;;9.89;64.98
77537;BME280;67783;51.656;16.106;2023-02-13T11:13:29;103815.66;;;9.90;64.76
77537;BME280;67783;51.656;16.106;2023-02-13T11:19:49;103806.52;;;10.01;64.79
77537;BME280;67783;51.656;16.106;2023-02-13T11:22:55;103801.97;;;10.05;63.23
77537;BME280;67783;51.656;16.106;2023-02-13T11:26:03;103797.34;;;10.11;64.65
77537;BME280;67783;51.656;16.106;2023-02-13T11:29:15;103797.30;;;10.14;64.04
77537;BME280;67783;51.656;16.106;2023-02-13T11:32:24;103800.89;;;10.13;61.45
77537;BME280;67783;51.656;16.106;2023-02-13T11:35:31;103798.96;;;10.22;64.01
77537;BME280;67783;51.656;16.106;2023-02-13T11:38:34;103797.11;;;10.24;63.72
77537;BME280;67783;51.656;16.106;2023-02-13T11:41:46;103800.66;;;10.26;61.84
77537;BME280;67783;51.656;16.106;2023-02-13T11:44:59;103787.20;;;10.27;63.42
77537;BME280;67783;51.656;16.106;2023-02-13T11:48:08;103796.18;;;10.26;63.44
77537;BME280;67783;51.656;16.106;2023-02-13T11:51:10;103799.70;;;10.28;61.80
77537;BME280;67783;51.656;16.106;2023-02-13T11:57:31;103803.19;;;10.32;63.28
77537;BME280;67783;51.656;16.106;2023-02-13T12:00:38;103806.73;;;10.34;61.38
77537;BME280;67783;51.656;16.106;2023-02-13T12:03:41;103810.22;;;10.37;63.42
77537;BME280;67783;51.656;16.106;2023-02-13T12:13:30;103792.32;;;10.39;63.05
77537;BME280;67783;51.656;16.106;2023-02-13T12:16:41;103792.36;;;10.36;62.99
77537;BME280;67783;51.656;16.106;2023-02-13T12:19:46;103786.18;;;10.33;61.41
77537;BME280;67783;51.656;16.106;2023-02-13T12:36:12;103762.76;;;10.41;62.75
77537;BME280;67783;51.656;16.106;2023-02-13T12:39:30;103772.55;;;10.43;62.62
77537;BME280;67783;51.656;16.106;2023-02-13T12:58:56;103754.78;;;10.38;61.90
77537;BME280;67783;51.656;16.106;2023-02-13T13:05:25;103757.55;;;10.35;61.14
77537;BME280;67783;51.656;16.106;2023-02-13T13:08:49;103757.57;;;10.33;59.56
77537;BME280;67783;51.656;16.106;2023-02-13T13:15:17;103773.76;;;10.29;61.37
77537;BME280;67783;51.656;16.106;2023-02-13T13:21:54;103786.35;;;10.27;59.44
77537;BME280;67783;51.656;16.106;2023-02-13T13:28:22;103765.69;;;10.30;61.42
77537;BME280;67783;51.656;16.106;2023-02-13T13:31:26;103771.95;;;10.31;60.89
77537;BME280;67783;51.656;16.106;2023-02-13T13:34:29;103770.02;;;10.36;61.55
77537;BME280;67783;51.656;16.106;2023-02-13T13:37:42;103764.65;;;10.36;61.43
77537;BME280;67783;51.656;16.106;2023-02-13T13:40:56;103774.45;;;10.38;60.15
77537;BME280;67783;51.656;16.106;2023-02-13T13:50:31;103762.91;;;10.35;60.13
77537;BME280;67783;51.656;16.106;2023-02-13T14:03:35;103734.42;;;10.29;59.41
77537;BME280;67783;51.656;16.106;2023-02-13T14:09:50;103743.29;;;10.33;60.95
77537;BME280;67783;51.656;16.106;2023-02-13T14:13:00;103729.95;;;10.30;59.45
77537;BME280;67783;51.656;16.106;2023-02-13T14:16:10;103721.85;;;10.31;61.00
77537;BME280;67783;51.656;16.106;2023-02-13T14:22:34;103696.79;;;10.34;60.14
77537;BME280;67783;51.656;16.106;2023-02-13T14:25:39;103699.39;;;10.37;61.23
77537;BME280;67783;51.656;16.106;2023-02-13T14:32:12;103696.86;;;10.31;60.96
77537;BME280;67783;51.656;16.106;2023-02-13T14:38:23;103707.59;;;10.31;61.47
77537;BME280;67783;51.656;16.106;2023-02-13T14:44:44;103686.96;;;10.33;61.62
77537;BME280;67783;51.656;16.106;2023-02-13T14:47:51;103675.41;;;10.31;61.70
77537;BME280;67783;51.656;16.106;2023-02-13T14:50:56;103663.91;;;10.26;61.36
77537;BME280;67783;51.656;16.106;2023-02-13T14:54:16;103666.54;;;10.27;61.86
77537;BME280;67783;51.656;16.106;2023-02-13T14:57:20;103673.73;;;10.27;61.89
77537;BME280;67783;51.656;16.106;2023-02-13T15:00:33;103677.32;;;10.26;61.65
77537;BME280;67783;51.656;16.106;2023-02-13T15:03:45;103677.23;;;10.29;62.01
77537;BME280;67783;51.656;16.106;2023-02-13T15:06:49;103682.62;;;10.27;62.06
77537;BME280;67783;51.656;16.106;2023-02-13T15:10:14;103696.03;;;10.27;61.52
77537;BME280;67783;51.656;16.106;2023-02-13T15:13:15;103685.25;;;10.30;62.07
77537;BME280;67783;51.656;16.106;2023-02-13T15:16:18;103685.28;;;10.29;62.04
77537;BME280;67783;51.656;16.106;2023-02-13T15:19:24;103674.59;;;10.27;61.62
77537;BME280;67783;51.656;16.106;2023-02-13T15:22:40;103669.21;;;10.27;62.14
77537;BME280;67783;51.656;16.106;2023-02-13T15:25:43;103663.91;;;10.26;62.19
77537;BME280;67783;51.656;16.106;2023-02-13T15:28:58;103663.94;;;10.24;61.87
77537;BME280;67783;51.656;16.106;2023-02-13T15:35:24;103658.58;;;10.24;62.34
77537;BME280;67783;51.656;16.106;2023-02-13T15:38:31;103660.45;;;10.21;62.27
77537;BME280;67783;51.656;16.106;2023-02-13T15:41:37;103663.13;;;10.21;62.45
77537;BME280;67783;51.656;16.106;2023-02-13T15:44:44;103656.88;;;10.20;62.47
77537;BME280;67783;51.656;16.106;2023-02-13T15:47:49;103657.86;;;10.17;62.38
77537;BME280;67783;51.656;16.106;2023-02-13T15:50:51;103654.27;;;10.18;62.58
77537;BME280;67783;51.656;16.106;2023-02-13T15:53:58;103641.77;;;10.17;62.60
77537;BME280;67783;51.656;16.106;2023-02-13T15:57:03;103643.49;;;10.20;62.65
77537;BME280;67783;51.656;16.106;2023-02-13T16:03:19;103655.12;;;10.19;62.76
77537;BME280;67783;51.656;16.106;2023-02-13T16:06:22;103656.01;;;10.19;62.77
77537;BME280;67783;51.656;16.106;2023-02-13T16:09:33;103662.32;;;10.18;62.86
77537;BME280;67783;51.656;16.106;2023-02-13T16:12:46;103645.41;;;10.13;63.02
77537;BME280;67783;51.656;16.106;2023-02-13T16:15:48;103656.10;;;10.15;62.97
77537;BME280;67783;51.656;16.106;2023-02-13T16:18:51;103659.68;;;10.15;63.06
77537;BME280;67783;51.656;16.106;2023-02-13T16:22:15;103660.56;;;10.16;63.22
77537;BME280;67783;51.656;16.106;2023-02-13T16:25:32;103659.68;;;10.15;63.11
77537;BME280;67783;51.656;16.106;2023-02-13T16:28:34;103657.96;;;10.11;63.28
77537;BME280;67783;51.656;16.106;2023-02-13T16:31:39;103640.19;;;10.07;63.83
77537;BME280;67783;51.656;16.106;2023-02-13T16:34:40;103646.51;;;10.05;63.55
77537;BME280;67783;51.656;16.106;2023-02-13T16:37:57;103667.19;;;9.98;63.83
77537;BME280;67783;51.656;16.106;2023-02-13T16:44:24;103668.19;;;9.94;63.77
77537;BME280;67783;51.656;16.106;2023-02-13T16:47:26;103661.09;;;9.93;63.93
77537;BME280;67783;51.656;16.106;2023-02-13T16:50:31;103662.98;;;9.88;64.35
77537;BME280;67783;51.656;16.106;2023-02-13T16:53:34;103688.80;;;9.92;63.96
77537;BME280;67783;51.656;16.106;2023-02-13T16:56:43;103688.82;;;9.91;64.08
77537;BME280;67783;51.656;16.106;2023-02-13T16:59:52;103687.00;;;9.93;63.93
77537;BME280;67783;51.656;16.106;2023-02-13T17:02:56;103679.84;;;9.93;64.02
77537;BME280;67783;51.656;16.106;2023-02-13T17:06:01;103653.08;;;9.92;64.59
77537;BME280;67783;51.656;16.106;2023-02-13T17:09:03;103661.11;;;9.92;64.07
77537;BME280;67783;51.656;16.106;2023-02-13T17:12:14;103661.20;;;9.89;64.44
77537;BME280;67783;51.656;16.106;2023-02-13T17:15:30;103645.44;;;9.73;64.77
77537;BME280;67783;51.656;16.106;2023-02-13T17:18:32;103676.38;;;9.88;64.26
77537;BME280;67783;51.656;16.106;2023-02-13T17:21:34;103672.91;;;9.83;64.63
77537;BME280;67783;51.656;16.106;2023-02-13T17:24:36;103669.35;;;9.83;64.38
77537;BME280;67783;51.656;16.106;2023-02-13T17:27:38;103672.98;;;9.80;64.64
77537;BME280;67783;51.656;16.106;2023-02-13T17:30:49;103663.26;;;9.76;65.42
77537;BME280;67783;51.656;16.106;2023-02-13T17:33:52;103669.53;;;9.75;64.72
77537;BME280;67783;51.656;16.106;2023-02-13T17:36:54;103659.77;;;9.72;64.91
77537;BME280;67783;51.656;16.106;2023-02-13T17:39:55;103661.51;;;9.73;64.72
77537;BME280;67783;51.656;16.106;2023-02-13T17:42:58;103671.38;;;9.73;64.86
77537;BME280;67783;51.656;16.106;2023-02-13T17:46:08;103673.20;;;9.71;65.40
77537;BME280;67783;51.656;16.106;2023-02-13T17:49:10;103659.79;;;9.71;64.79
77537;BME280;67783;51.656;16.106;2023-02-13T17:52:18;103666.97;;;9.69;65.03
77537;BME280;67783;51.656;16.106;2023-02-13T17:55:23;103666.95;;;9.70;64.78
77537;BME280;67783;51.656;16.106;2023-02-13T17:58:25;103669.71;;;9.66;64.85
77537;BME280;67783;51.656;16.106;2023-02-13T18:01:30;103670.70;;;9.62;65.45
77537;BME280;67783;51.656;16.106;2023-02-13T18:04:32;103670.63;;;9.65;64.86
77537;BME280;67783;51.656;16.106;2023-02-13T18:07:34;103669.80;;;9.63;64.98
77537;BME280;67783;51.656;16.106;2023-02-13T18:10:37;103653.65;;;9.66;64.75
77537;BME280;67783;51.656;16.106;2023-02-13T18:13:39;103658.08;;;9.68;64.84
77537;BME280;67783;51.656;16.106;2023-02-13T18:16:50;103645.55;;;9.69;65.04
77537;BME280;67783;51.656;16.106;2023-02-13T18:19:54;103621.66;;;9.60;64.67
77537;BME280;67783;51.656;16.106;2023-02-13T18:22:57;103646.47;;;9.68;64.55
77537;BME280;67783;51.656;16.106;2023-02-13T18:26:08;103639.36;;;9.67;64.42
77537;BME280;67783;51.656;16.106;2023-02-13T18:29:10;103650.16;;;9.62;64.29
77537;BME280;67783;51.656;16.106;2023-02-13T18:32:15;103660.07;;;9.59;63.79
77537;BME280;67783;51.656;16.106;2023-02-13T18:35:17;103660.05;;;9.60;64.09
77537;BME280;67783;51.656;16.106;2023-02-13T18:38:19;103666.31;;;9.59;63.90
77537;BME280;67783;51.656;16.106;2023-02-13T18:41:21;103669.80;;;9.63;64.02
77537;BME280;67783;51.656;16.106;2023-02-13T18:44:23;103676.04;;;9.63;63.91
77537;BME280;67783;51.656;16.106;2023-02-13T18:47:36;103676.04;;;9.63;63.45
77537;BME280;67783;51.656;16.106;2023-02-13T18:50:39;103660.87;;;9.64;63.85
77537;BME280;67783;51.656;16.106;2023-02-13T18:53:41;103669.79;;;9.64;63.76
77537;BME280;67783;51.656;16.106;2023-02-13T18:56:44;103667.95;;;9.65;63.82
77537;BME280;67783;51.656;16.106;2023-02-13T18:59:46;103669.80;;;9.63;63.78
77537;BME280;67783;51.656;16.106;2023-02-13T19:02:57;103665.41;;;9.60;63.45
77537;BME280;67783;51.656;16.106;2023-02-13T19:06:06;103657.38;;;9.60;63.79
77537;BME280;67783;51.656;16.106;2023-02-13T19:09:09;103664.52;;;9.60;63.74
77537;BME280;67783;51.656;16.106;2023-02-13T19:12:11;103671.62;;;9.61;63.75
77537;BME280;67783;51.656;16.106;2023-02-13T19:15:13;103683.30;;;9.57;63.81
77537;BME280;67783;51.656;16.106;2023-02-13T19:18:18;103685.98;;;9.57;63.68
77537;BME280;67783;51.656;16.106;2023-02-13T19:21:22;103697.64;;;9.56;63.88